Flight Track Log - Related Links

Times and Time Zones

All times are in EDT time to prevent confusion due to time zone crossing. See the RPA3219 flight status page for this flight to view local times or setup timezone preferences in your user account.

Time Position Orientation Groundspeed Altitude Reporting Facility
EDT Latitude Longitude Course Direction KTS MPH feet Rate Location/Type
Thu 07:32:15 PM 42.7230 -73.7959 259° West  Level FlightAware Approximate
Thu 07:33:15 PM 42.6197 -73.7667 322° Northwest  Level FlightAware Approximate
Thu 07:34:39 PM 42.7125 -73.8669 327° Northwest 233 268 3,100  Level Boston Center
Thu 07:35:39 PM 42.7681 -73.9164 327° Northwest 264 304 5,600 2,750 Climbing Boston Center
Thu 07:36:39 PM 42.8297 -73.9717 293° West 269 310 8,600 2,600 Climbing Boston Center
Thu 07:37:39 PM 42.8578 -74.0603 254° West 254 292 10,800 2,000 Climbing Boston Center
Thu 07:38:39 PM 42.8356 -74.1644 239° Southwest 241 277 12,600 1,900 Climbing Boston Center
Thu 07:39:39 PM 42.7964 -74.2539 208° Southwest 303 349 14,600 2,000 Climbing Boston Center
Thu 07:40:39 PM 42.7058 -74.3189 154° Southeast 308 354 16,600 1,900 Climbing Boston Center
Thu 07:41:39 PM 42.6089 -74.2539 152° Southeast 302 348 18,400 1,700 Climbing Boston Center
Thu 07:42:39 PM 42.5161 -74.1864 147° Southeast 347 399 20,000 1,500 Climbing Boston Center
Thu 07:43:39 PM 42.4278 -74.1081 124° Southeast 365 420 21,400 1,400 Climbing Boston Center
Thu 07:44:39 PM 42.3650 -73.9800 121° Southeast 379 436 22,800 900 Climbing Boston Center
Thu 07:45:39 PM 42.3061 -73.8494 154° Southeast 386 444 23,200 600 Climbing Boston Center
Thu 07:46:39 PM 42.2069 -73.7856 170° South 392 451 24,000 800 Climbing Boston Center
Thu 07:47:39 PM 42.0906 -73.7578 170° South 396 456 24,800 1,050 Climbing Boston Center
Thu 07:48:39 PM 41.9700 -73.7303 171° South 414 476 26,100 1,150 Climbing Boston Center
Thu 07:49:39 PM 41.8514 -73.7053 170° South 429 494 27,100 950 Climbing Boston Center
Thu 07:50:39 PM 41.7308 -73.6781 171° South 434 499 28,000 1,000 Climbing Boston Center
Thu 07:51:39 PM 41.6081 -73.6533 171° South 446 513 29,100 1,000 Climbing Boston Center
Thu 07:52:33 PM 41.5164 -73.6333 171° South 448 516 29,900 1,105 Climbing New York Center
Thu 07:53:33 PM 41.3942 -73.6086 186° South 454 522 31,200 1,271 Climbing New York Center
Thu 07:54:31 PM 41.2728 -73.6256 226° Southwest 439 505 32,400 1,210 Climbing New York Center
Thu 07:55:32 PM 41.1844 -73.7486 231° Southwest 391 450 33,600 787 Climbing New York Center
Thu 07:56:33 PM 41.1147 -73.8639 232° Southwest 391 450 34,000 202 Climbing New York Center
Thu 07:57:31 PM 41.0428 -73.9844 232° Southwest 404 465 34,000  Level New York Center
Thu 07:58:32 PM 40.9728 -74.1047 231° Southwest 418 481 34,000  Level New York Center
Thu 07:59:31 PM 40.9008 -74.2219 231° Southwest 423 487 34,000  Level New York Center
Thu 08:00:32 PM 40.8264 -74.3444 232° Southwest 428 493 34,000  Level New York Center
Thu 08:01:33 PM 40.7558 -74.4639 231° Southwest 428 493 34,000  Level New York Center
Thu 08:02:33 PM 40.6814 -74.5831 231° Southwest 428 493 34,000  Level New York Center
Thu 08:03:30 PM 40.6086 -74.7019 229° Southwest 428 493 34,000  Level New York Center
Thu 08:04:31 PM 40.5319 -74.8178 226° Southwest 428 493 34,000  Level New York Center
Thu 08:05:32 PM 40.4486 -74.9300 227° Southwest 434 499 34,000  Level New York Center
Thu 08:06:32 PM 40.3786 -75.0294 228° Southwest 429 494 34,000  Level New York Center
Thu 08:07:33 PM 40.2925 -75.1547 226° Southwest 429 494 34,000  Level New York Center
Thu 08:08:30 PM 40.2181 -75.2561 228° Southwest 423 487 34,000  Level New York Center
Thu 08:09:31 PM 40.1428 -75.3653 227° Southwest 430 495 34,000  Level New York Center
Thu 08:10:32 PM 40.0633 -75.4767 227° Southwest 430 495 34,000  Level New York Center
Thu 08:11:31 PM 39.9794 -75.5928 228° Southwest 430 495 34,000  Level New York Center
Thu 08:12:33 PM 39.9019 -75.7067 230° Southwest 430 495 34,000  Level New York Center
Thu 08:13:32 PM 39.8258 -75.8256 229° Southwest 430 495 34,000  Level New York Center
Thu 08:14:33 PM 39.7367 -75.9569 232° Southwest 446 513 34,000  Level New York Center
Thu 08:16:39 PM 39.5850 -76.2056 231° Southwest 430 495 34,000  Level Washington Center
Thu 08:17:37 PM 39.5092 -76.3258 230° Southwest 430 495 34,000  Level Washington Center
Thu 08:18:38 PM 39.4336 -76.4406 229° Southwest 430 495 34,000  Level Washington Center
Thu 08:19:40 PM 39.3556 -76.5578 231° Southwest 430 495 34,000  Level Washington Center
Thu 08:20:38 PM 39.2817 -76.6747 231° Southwest 430 495 34,000  Level Washington Center
Thu 08:21:39 PM 39.2139 -76.7836 230° Southwest 430 495 34,000  Level Washington Center
Thu 08:22:39 PM 39.1378 -76.9003 229° Southwest 430 495 34,000 305 Level Washington Center
Thu 08:23:37 PM 39.0614 -77.0139 222° Southwest 430 495 34,600 958 Climbing Washington Center
Thu 08:24:38 PM 38.9767 -77.1136 220° Southwest 419 482 35,900 694 Climbing Washington Center
Thu 08:25:38 PM 38.8878 -77.2106 220° Southwest 419 482 36,000 50 Climbing Washington Center
Thu 08:26:38 PM 38.7969 -77.3097 220° Southwest 425 489 36,000  Level Washington Center
Thu 08:27:39 PM 38.7058 -77.4061 220° Southwest 435 501 36,000  Level Washington Center
Thu 08:28:37 PM 38.6061 -77.5150 220° Southwest 435 501 36,000  Level Washington Center
Thu 08:29:38 PM 38.5150 -77.6136 220° Southwest 435 501 36,000  Level Washington Center
Thu 08:30:39 PM 38.4256 -77.7092 209° Southwest 435 501 36,000  Level Washington Center
Thu 08:31:37 PM 38.3222 -77.7831 210° Southwest 435 501 36,000  Level Washington Center
Thu 08:32:37 PM 38.2228 -77.8567 210° Southwest 430 495 36,000  Level Washington Center
Thu 08:33:38 PM 38.1278 -77.9253 210° Southwest 430 495 36,000  Level Washington Center
Thu 08:34:39 PM 38.0261 -77.9983 211° Southwest 430 495 36,000  Level Washington Center
Thu 08:35:40 PM 37.9244 -78.0769 216° Southwest 425 489 36,000 -50 Level Washington Center
Thu 08:36:38 PM 37.8158 -78.1758 226° Southwest 441 507 35,900 -504 Descending Washington Center
Thu 08:37:39 PM 37.7344 -78.2833 225° Southwest 435 501 35,000 -908 Descending Washington Center
Thu 08:38:37 PM 37.6464 -78.3931 224° Southwest 435 501 34,100 -508 Descending Washington Center
Thu 08:39:37 PM 37.5583 -78.4997 226° Southwest 446 513 34,000 -150 Descending Washington Center
Thu 08:40:37 PM 37.4828 -78.5989 243° Southwest 446 513 33,800 -992 Descending Washington Center
Thu 08:41:38 PM 37.4272 -78.7353 244° Southwest 438 504 32,000 -893 Descending Washington Center
Thu 08:42:38 PM 37.3733 -78.8742 236° Southwest 438 504 32,000  Level Washington Center
Thu 08:43:39 PM 37.3072 -78.9967 219° Southwest 438 504 32,000  Level Washington Center
Thu 08:44:39 PM 37.2106 -79.0967 219° Southwest 438 504 32,000  Level Washington Center
Thu 08:45:40 PM 37.1031 -79.2039 220° Southwest 443 510 32,000  Level Washington Center
Thu 08:46:37 PM 37.0083 -79.3033 220° Southwest 448 516 32,000  Level Washington Center
Thu 08:47:38 PM 36.9133 -79.4028 219° Southwest 448 516 32,000  Level Washington Center
Thu 08:48:37 PM 36.8164 -79.4992 219° Southwest 453 521 32,000 -202 Level Washington Center
Thu 08:49:37 PM 36.7278 -79.5881 220° Southwest 453 521 31,600 -1,339 Descending Washington Center
Thu 08:50:38 PM 36.6347 -79.6867 219° Southwest 453 521 29,300 -2,290 Descending Washington Center
Thu 08:53:04 PM 36.4019 -79.9167 219° Southwest 404 465 23,700 -2,126 Descending Atlanta Center
Thu 08:54:04 PM 36.3172 -80.0008 216° Southwest 399 459 22,000 -850 Descending Atlanta Center
Thu 08:55:04 PM 36.2342 -80.0747 214° Southwest 399 459 22,000 -650 Level Atlanta Center
Thu 08:56:04 PM 36.1508 -80.1431 215° Southwest 394 453 20,700 -1,600 Descending Atlanta Center
Thu 08:57:04 PM 36.0675 -80.2164 218° Southwest 389 448 18,800 -2,075 Descending Atlanta Center
Thu 08:57:51 PM 35.9986 -80.2839 213° Southwest 361 415 17,000 -1,850 Descending Atlanta Center
Thu 08:59:04 PM 35.9092 -80.3547 214° Southwest 361 415 15,100 -1,579 Descending Atlanta Center
Thu 09:00:04 PM 35.8378 -80.4142 214° Southwest 329 379 13,500 -1,650 Descending Atlanta Center
Thu 09:01:04 PM 35.7708 -80.4708 215° Southwest 307 353 11,800 -1,149 Descending Atlanta Center
Thu 09:02:25 PM 35.6792 -80.5492 208° Southwest 279 321 10,800 -950 Descending Atlanta Center
Thu 09:03:04 PM 35.6342 -80.5792 210° Southwest 288 331 9,900 -1,636 Descending Atlanta Center
Thu 09:04:04 PM 35.5686 -80.6253 207° Southwest 275 316 8,100 -1,800 Descending Atlanta Center
Thu 09:05:04 PM 35.5031 -80.6661 209° Southwest 269 310 6,300 -994 Descending Atlanta Center
Thu 09:06:47 PM 35.4072 -80.7303 208° Southwest 225 259 5,400 -549 Descending FAA TRACON SMA TRACON (SMA)
Thu 09:07:26 PM 35.3722 -80.7531 208° Southwest 202 232 5,000 -750 Descending FAA TRACON SMA TRACON (SMA)
Thu 09:08:07 PM 35.3433 -80.7719 220° Southwest 183 211 4,400 -1,111 Descending FAA TRACON SMA TRACON (SMA)
Thu 09:08:47 PM 35.3183 -80.7981 230° Southwest 175 201 3,500 -1,125 Descending FAA TRACON SMA TRACON (SMA)
Thu 09:09:27 PM 35.2981 -80.8275 228° Southwest 168 193 2,900 -825 Descending FAA TRACON SMA TRACON (SMA)
Thu 09:10:07 PM 35.2789 -80.8533 229° Southwest 166 191 2,400 -750 Descending FAA TRACON SMA TRACON (SMA)
Thu 09:10:47 PM 35.2606 -80.8792 228° Southwest 151 174 1,900 -675 Descending FAA TRACON SMA TRACON (SMA)
Thu 09:11:27 PM 35.2450 -80.9003 228° Southwest 129 148 1,500 -600 Descending FAA TRACON SMA TRACON (SMA)

Login

Don't have an account? Register now (free) for customized features, flight alerts, and more!